sensor_id;sensor_type;location;lat;lon;timestamp;P1;durP1;ratioP1;P2;durP2;ratioP2
34960;SDS011;30789;52.030;7.110;2022-12-07T00:00:50;13.70;;;9.25;;
34960;SDS011;30789;52.030;7.110;2022-12-07T00:03:17;11.85;;;8.85;;
34960;SDS011;30789;52.030;7.110;2022-12-07T00:05:43;11.82;;;8.75;;
34960;SDS011;30789;52.030;7.110;2022-12-07T00:08:10;14.57;;;8.10;;
34960;SDS011;30789;52.030;7.110;2022-12-07T00:10:38;11.82;;;8.13;;
34960;SDS011;30789;52.030;7.110;2022-12-07T00:13:04;10.68;;;8.40;;
34960;SDS011;30789;52.030;7.110;2022-12-07T00:15:30;9.55;;;7.25;;
34960;SDS011;30789;52.030;7.110;2022-12-07T00:17:59;12.32;;;9.05;;
34960;SDS011;30789;52.030;7.110;2022-12-07T00:20:26;12.13;;;8.32;;
34960;SDS011;30789;52.030;7.110;2022-12-07T00:22:52;10.23;;;8.00;;
34960;SDS011;30789;52.030;7.110;2022-12-07T00:25:19;9.88;;;7.82;;
34960;SDS011;30789;52.030;7.110;2022-12-07T00:27:46;10.07;;;7.95;;
34960;SDS011;30789;52.030;7.110;2022-12-07T00:30:13;10.98;;;7.97;;
34960;SDS011;30789;52.030;7.110;2022-12-07T00:32:40;13.30;;;8.18;;
34960;SDS011;30789;52.030;7.110;2022-12-07T00:35:07;10.80;;;7.63;;
34960;SDS011;30789;52.030;7.110;2022-12-07T00:37:34;11.45;;;7.22;;
34960;SDS011;30789;52.030;7.110;2022-12-07T00:40:00;8.93;;;7.10;;
34960;SDS011;30789;52.030;7.110;2022-12-07T00:42:26;10.95;;;7.20;;
34960;SDS011;30789;52.030;7.110;2022-12-07T00:44:54;10.55;;;7.70;;
34960;SDS011;30789;52.030;7.110;2022-12-07T00:47:21;11.07;;;7.20;;
34960;SDS011;30789;52.030;7.110;2022-12-07T00:49:47;8.77;;;6.53;;
34960;SDS011;30789;52.030;7.110;2022-12-07T00:52:13;9.30;;;6.40;;
34960;SDS011;30789;52.030;7.110;2022-12-07T00:54:40;9.80;;;6.80;;
34960;SDS011;30789;52.030;7.110;2022-12-07T00:57:06;9.32;;;6.45;;
34960;SDS011;30789;52.030;7.110;2022-12-07T00:59:33;10.98;;;7.35;;
34960;SDS011;30789;52.030;7.110;2022-12-07T01:02:01;10.30;;;7.68;;
34960;SDS011;30789;52.030;7.110;2022-12-07T01:04:27;9.13;;;6.97;;
34960;SDS011;30789;52.030;7.110;2022-12-07T01:06:54;11.48;;;7.25;;
34960;SDS011;30789;52.030;7.110;2022-12-07T01:09:21;10.48;;;7.28;;
34960;SDS011;30789;52.030;7.110;2022-12-07T01:11:47;9.13;;;6.68;;
34960;SDS011;30789;52.030;7.110;2022-12-07T01:14:13;12.15;;;7.57;;
34960;SDS011;30789;52.030;7.110;2022-12-07T01:16:40;12.05;;;6.97;;
34960;SDS011;30789;52.030;7.110;2022-12-07T01:19:08;11.60;;;7.95;;
34960;SDS011;30789;52.030;7.110;2022-12-07T01:21:34;9.10;;;6.88;;
34960;SDS011;30789;52.030;7.110;2022-12-07T01:24:03;9.13;;;7.03;;
34960;SDS011;30789;52.030;7.110;2022-12-07T01:26:30;9.90;;;7.13;;
34960;SDS011;30789;52.030;7.110;2022-12-07T01:28:57;9.63;;;7.28;;
34960;SDS011;30789;52.030;7.110;2022-12-07T01:31:26;8.80;;;6.72;;
34960;SDS011;30789;52.030;7.110;2022-12-07T01:33:54;10.68;;;7.07;;
34960;SDS011;30789;52.030;7.110;2022-12-07T01:36:24;8.80;;;6.47;;
34960;SDS011;30789;52.030;7.110;2022-12-07T01:38:53;8.57;;;6.20;;
34960;SDS011;30789;52.030;7.110;2022-12-07T01:41:21;7.75;;;6.72;;
34960;SDS011;30789;52.030;7.110;2022-12-07T01:46:45;10.48;;;7.25;;
34960;SDS011;30789;52.030;7.110;2022-12-07T01:49:14;10.27;;;6.35;;
34960;SDS011;30789;52.030;7.110;2022-12-07T01:51:47;9.05;;;6.47;;
34960;SDS011;30789;52.030;7.110;2022-12-07T01:54:18;10.05;;;6.70;;
34960;SDS011;30789;52.030;7.110;2022-12-07T01:56:47;7.93;;;6.53;;
34960;SDS011;30789;52.030;7.110;2022-12-07T01:59:17;8.25;;;5.88;;
34960;SDS011;30789;52.030;7.110;2022-12-07T02:01:45;9.90;;;6.75;;
34960;SDS011;30789;52.030;7.110;2022-12-07T02:04:12;9.40;;;6.32;;
34960;SDS011;30789;52.030;7.110;2022-12-07T02:06:39;12.82;;;6.88;;
34960;SDS011;30789;52.030;7.110;2022-12-07T02:09:08;7.85;;;6.45;;
34960;SDS011;30789;52.030;7.110;2022-12-07T02:11:35;10.07;;;5.80;;
34960;SDS011;30789;52.030;7.110;2022-12-07T02:14:02;8.90;;;6.43;;
34960;SDS011;30789;52.030;7.110;2022-12-07T02:16:30;7.28;;;5.90;;
34960;SDS011;30789;52.030;7.110;2022-12-07T02:19:09;8.07;;;5.40;;
34960;SDS011;30789;52.030;7.110;2022-12-07T02:21:50;7.50;;;5.40;;
34960;SDS011;30789;52.030;7.110;2022-12-07T02:24:28;7.03;;;5.03;;
34960;SDS011;30789;52.030;7.110;2022-12-07T02:27:12;7.22;;;5.22;;
34960;SDS011;30789;52.030;7.110;2022-12-07T02:30:05;7.57;;;5.13;;
34960;SDS011;30789;52.030;7.110;2022-12-07T02:32:37;7.80;;;5.38;;
34960;SDS011;30789;52.030;7.110;2022-12-07T02:35:11;9.15;;;5.05;;
34960;SDS011;30789;52.030;7.110;2022-12-07T02:37:42;6.28;;;5.45;;
34960;SDS011;30789;52.030;7.110;2022-12-07T02:40:18;9.02;;;5.75;;
34960;SDS011;30789;52.030;7.110;2022-12-07T02:42:49;7.93;;;5.25;;
34960;SDS011;30789;52.030;7.110;2022-12-07T02:45:22;8.10;;;5.55;;
34960;SDS011;30789;52.030;7.110;2022-12-07T02:47:53;7.65;;;4.85;;
34960;SDS011;30789;52.030;7.110;2022-12-07T02:50:24;8.20;;;5.20;;
34960;SDS011;30789;52.030;7.110;2022-12-07T02:52:51;5.82;;;5.03;;
34960;SDS011;30789;52.030;7.110;2022-12-07T02:55:18;8.95;;;5.10;;
34960;SDS011;30789;52.030;7.110;2022-12-07T02:57:54;7.65;;;4.47;;
34960;SDS011;30789;52.030;7.110;2022-12-07T03:00:33;9.13;;;4.80;;
34960;SDS011;30789;52.030;7.110;2022-12-07T03:03:10;8.93;;;5.10;;
34960;SDS011;30789;52.030;7.110;2022-12-07T03:05:52;5.80;;;4.28;;
34960;SDS011;30789;52.030;7.110;2022-12-07T03:08:30;6.32;;;4.65;;
34960;SDS011;30789;52.030;7.110;2022-12-07T03:11:05;6.18;;;4.03;;
34960;SDS011;30789;52.030;7.110;2022-12-07T03:13:36;6.78;;;4.07;;
34960;SDS011;30789;52.030;7.110;2022-12-07T03:16:10;5.55;;;4.03;;
34960;SDS011;30789;52.030;7.110;2022-12-07T03:18:42;4.40;;;3.70;;
34960;SDS011;30789;52.030;7.110;2022-12-07T03:21:14;4.60;;;4.00;;
34960;SDS011;30789;52.030;7.110;2022-12-07T03:23:45;7.93;;;3.67;;
34960;SDS011;30789;52.030;7.110;2022-12-07T03:26:16;8.73;;;3.58;;
34960;SDS011;30789;52.030;7.110;2022-12-07T03:28:46;10.07;;;4.32;;
34960;SDS011;30789;52.030;7.110;2022-12-07T03:31:20;5.65;;;3.92;;
34960;SDS011;30789;52.030;7.110;2022-12-07T03:33:49;3.83;;;3.40;;
34960;SDS011;30789;52.030;7.110;2022-12-07T03:36:21;7.75;;;3.97;;
34960;SDS011;30789;52.030;7.110;2022-12-07T03:38:53;9.15;;;4.53;;
34960;SDS011;30789;52.030;7.110;2022-12-07T03:41:24;7.80;;;3.38;;
34960;SDS011;30789;52.030;7.110;2022-12-07T03:43:54;5.60;;;3.90;;
34960;SDS011;30789;52.030;7.110;2022-12-07T03:46:25;8.02;;;3.17;;
34960;SDS011;30789;52.030;7.110;2022-12-07T03:48:59;6.05;;;3.45;;
34960;SDS011;30789;52.030;7.110;2022-12-07T03:51:34;5.80;;;3.38;;
34960;SDS011;30789;52.030;7.110;2022-12-07T03:54:07;7.55;;;3.03;;
34960;SDS011;30789;52.030;7.110;2022-12-07T03:56:39;6.32;;;2.90;;
34960;SDS011;30789;52.030;7.110;2022-12-07T03:59:08;5.63;;;3.40;;
34960;SDS011;30789;52.030;7.110;2022-12-07T04:01:37;4.78;;;3.10;;
34960;SDS011;30789;52.030;7.110;2022-12-07T04:04:03;9.75;;;3.70;;
34960;SDS011;30789;52.030;7.110;2022-12-07T04:06:30;5.55;;;3.33;;
34960;SDS011;30789;52.030;7.110;2022-12-07T04:08:56;5.25;;;3.00;;
34960;SDS011;30789;52.030;7.110;2022-12-07T04:11:23;10.32;;;2.88;;
34960;SDS011;30789;52.030;7.110;2022-12-07T04:13:49;3.53;;;2.80;;
34960;SDS011;30789;52.030;7.110;2022-12-07T04:16:33;4.57;;;2.78;;
34960;SDS011;30789;52.030;7.110;2022-12-07T04:19:01;7.55;;;3.53;;
34960;SDS011;30789;52.030;7.110;2022-12-07T04:21:27;2.95;;;2.10;;
34960;SDS011;30789;52.030;7.110;2022-12-07T04:23:54;4.93;;;2.78;;
34960;SDS011;30789;52.030;7.110;2022-12-07T04:26:20;4.57;;;2.58;;
34960;SDS011;30789;52.030;7.110;2022-12-07T04:28:47;6.72;;;2.30;;
34960;SDS011;30789;52.030;7.110;2022-12-07T04:31:13;7.93;;;3.05;;
34960;SDS011;30789;52.030;7.110;2022-12-07T04:33:39;4.72;;;2.47;;
34960;SDS011;30789;52.030;7.110;2022-12-07T04:36:07;3.22;;;2.47;;
34960;SDS011;30789;52.030;7.110;2022-12-07T04:38:34;3.42;;;2.03;;
34960;SDS011;30789;52.030;7.110;2022-12-07T04:41:03;7.00;;;2.28;;
34960;SDS011;30789;52.030;7.110;2022-12-07T04:43:31;5.53;;;2.17;;
34960;SDS011;30789;52.030;7.110;2022-12-07T04:45:57;4.68;;;2.40;;
34960;SDS011;30789;52.030;7.110;2022-12-07T04:48:24;3.88;;;2.60;;
34960;SDS011;30789;52.030;7.110;2022-12-07T04:50:50;3.47;;;2.40;;
34960;SDS011;30789;52.030;7.110;2022-12-07T04:53:18;7.93;;;3.20;;
34960;SDS011;30789;52.030;7.110;2022-12-07T04:55:45;3.90;;;2.42;;
34960;SDS011;30789;52.030;7.110;2022-12-07T04:58:12;4.50;;;2.47;;
34960;SDS011;30789;52.030;7.110;2022-12-07T05:00:39;5.43;;;2.47;;
34960;SDS011;30789;52.030;7.110;2022-12-07T05:03:06;4.55;;;2.40;;
34960;SDS011;30789;52.030;7.110;2022-12-07T05:05:32;6.32;;;1.95;;
34960;SDS011;30789;52.030;7.110;2022-12-07T05:07:59;9.02;;;2.90;;
34960;SDS011;30789;52.030;7.110;2022-12-07T05:10:27;5.78;;;2.00;;
34960;SDS011;30789;52.030;7.110;2022-12-07T05:12:53;5.32;;;2.20;;
34960;SDS011;30789;52.030;7.110;2022-12-07T05:15:19;8.23;;;2.40;;
34960;SDS011;30789;52.030;7.110;2022-12-07T05:17:46;4.55;;;2.42;;
34960;SDS011;30789;52.030;7.110;2022-12-07T05:20:12;3.30;;;2.13;;
34960;SDS011;30789;52.030;7.110;2022-12-07T05:22:39;7.00;;;2.50;;
34960;SDS011;30789;52.030;7.110;2022-12-07T05:25:05;2.70;;;1.83;;
34960;SDS011;30789;52.030;7.110;2022-12-07T05:27:34;4.35;;;2.22;;
34960;SDS011;30789;52.030;7.110;2022-12-07T05:30:00;5.15;;;2.10;;
34960;SDS011;30789;52.030;7.110;2022-12-07T05:32:27;3.63;;;2.00;;
34960;SDS011;30789;52.030;7.110;2022-12-07T05:34:53;5.65;;;2.40;;
34960;SDS011;30789;52.030;7.110;2022-12-07T05:37:20;3.22;;;2.00;;
34960;SDS011;30789;52.030;7.110;2022-12-07T05:39:47;5.88;;;2.60;;
34960;SDS011;30789;52.030;7.110;2022-12-07T05:42:13;7.50;;;2.30;;
34960;SDS011;30789;52.030;7.110;2022-12-07T05:44:42;4.22;;;2.78;;
34960;SDS011;30789;52.030;7.110;2022-12-07T05:47:10;6.65;;;3.97;;
34960;SDS011;30789;52.030;7.110;2022-12-07T05:49:37;3.63;;;2.58;;
34960;SDS011;30789;52.030;7.110;2022-12-07T05:52:04;6.30;;;3.10;;
34960;SDS011;30789;52.030;7.110;2022-12-07T05:54:31;7.00;;;2.28;;
34960;SDS011;30789;52.030;7.110;2022-12-07T05:56:58;7.70;;;4.50;;
34960;SDS011;30789;52.030;7.110;2022-12-07T05:59:24;8.90;;;3.00;;
34960;SDS011;30789;52.030;7.110;2022-12-07T06:01:54;11.48;;;6.22;;
34960;SDS011;30789;52.030;7.110;2022-12-07T06:04:22;17.02;;;9.05;;
34960;SDS011;30789;52.030;7.110;2022-12-07T06:06:49;18.25;;;7.32;;
34960;SDS011;30789;52.030;7.110;2022-12-07T06:09:16;8.57;;;4.88;;
34960;SDS011;30789;52.030;7.110;2022-12-07T06:11:43;7.43;;;4.75;;
34960;SDS011;30789;52.030;7.110;2022-12-07T06:14:27;8.50;;;5.05;;
34960;SDS011;30789;52.030;7.110;2022-12-07T06:16:55;3.92;;;2.75;;
34960;SDS011;30789;52.030;7.110;2022-12-07T06:19:22;2.72;;;1.60;;
34960;SDS011;30789;52.030;7.110;2022-12-07T06:21:48;4.45;;;2.22;;
34960;SDS011;30789;52.030;7.110;2022-12-07T06:24:15;3.72;;;1.95;;
34960;SDS011;30789;52.030;7.110;2022-12-07T06:26:42;7.43;;;1.77;;
34960;SDS011;30789;52.030;7.110;2022-12-07T06:29:09;3.80;;;1.92;;
34960;SDS011;30789;52.030;7.110;2022-12-07T06:31:36;3.55;;;1.88;;
34960;SDS011;30789;52.030;7.110;2022-12-07T06:34:05;3.47;;;1.40;;
34960;SDS011;30789;52.030;7.110;2022-12-07T06:36:34;3.80;;;1.80;;
34960;SDS011;30789;52.030;7.110;2022-12-07T06:39:01;3.20;;;1.77;;
34960;SDS011;30789;52.030;7.110;2022-12-07T06:41:27;3.40;;;1.67;;
34960;SDS011;30789;52.030;7.110;2022-12-07T06:43:54;2.72;;;1.52;;
34960;SDS011;30789;52.030;7.110;2022-12-07T06:46:20;5.25;;;2.08;;
34960;SDS011;30789;52.030;7.110;2022-12-07T06:48:47;4.05;;;2.00;;
34960;SDS011;30789;52.030;7.110;2022-12-07T06:51:15;4.78;;;2.35;;
34960;SDS011;30789;52.030;7.110;2022-12-07T06:53:41;5.07;;;2.20;;
34960;SDS011;30789;52.030;7.110;2022-12-07T06:56:08;2.38;;;1.70;;
34960;SDS011;30789;52.030;7.110;2022-12-07T06:58:34;5.25;;;2.05;;
34960;SDS011;30789;52.030;7.110;2022-12-07T07:01:01;3.28;;;1.92;;
34960;SDS011;30789;52.030;7.110;2022-12-07T07:03:27;4.75;;;2.13;;
34960;SDS011;30789;52.030;7.110;2022-12-07T07:05:54;6.25;;;2.78;;
34960;SDS011;30789;52.030;7.110;2022-12-07T07:08:22;8.45;;;4.07;;
34960;SDS011;30789;52.030;7.110;2022-12-07T07:10:48;9.52;;;3.83;;
34960;SDS011;30789;52.030;7.110;2022-12-07T07:13:15;5.90;;;3.33;;
34960;SDS011;30789;52.030;7.110;2022-12-07T07:15:42;11.73;;;4.03;;
34960;SDS011;30789;52.030;7.110;2022-12-07T07:18:08;7.15;;;3.97;;
34960;SDS011;30789;52.030;7.110;2022-12-07T07:20:35;6.93;;;3.60;;
34960;SDS011;30789;52.030;7.110;2022-12-07T07:23:02;9.18;;;5.40;;
34960;SDS011;30789;52.030;7.110;2022-12-07T07:25:30;8.77;;;4.15;;
34960;SDS011;30789;52.030;7.110;2022-12-07T07:27:56;10.88;;;4.82;;
34960;SDS011;30789;52.030;7.110;2022-12-07T07:30:23;5.95;;;3.70;;
34960;SDS011;30789;52.030;7.110;2022-12-07T07:32:49;7.93;;;3.60;;
34960;SDS011;30789;52.030;7.110;2022-12-07T07:35:16;16.92;;;9.70;;
34960;SDS011;30789;52.030;7.110;2022-12-07T07:37:43;15.25;;;8.38;;
34960;SDS011;30789;52.030;7.110;2022-12-07T07:40:10;12.20;;;7.53;;
34960;SDS011;30789;52.030;7.110;2022-12-07T07:42:38;11.30;;;6.32;;
34960;SDS011;30789;52.030;7.110;2022-12-07T07:45:04;14.18;;;5.25;;
34960;SDS011;30789;52.030;7.110;2022-12-07T07:47:32;11.05;;;6.60;;
34960;SDS011;30789;52.030;7.110;2022-12-07T07:49:58;12.07;;;4.03;;
34960;SDS011;30789;52.030;7.110;2022-12-07T07:52:25;8.07;;;3.53;;
34960;SDS011;30789;52.030;7.110;2022-12-07T07:54:51;7.00;;;3.13;;
34960;SDS011;30789;52.030;7.110;2022-12-07T07:57:18;4.30;;;2.60;;
34960;SDS011;30789;52.030;7.110;2022-12-07T07:59:45;7.45;;;3.92;;
34960;SDS011;30789;52.030;7.110;2022-12-07T08:02:13;10.27;;;4.18;;
34960;SDS011;30789;52.030;7.110;2022-12-07T08:04:41;10.45;;;3.95;;
34960;SDS011;30789;52.030;7.110;2022-12-07T08:07:07;6.40;;;3.38;;
34960;SDS011;30789;52.030;7.110;2022-12-07T08:09:34;7.40;;;3.38;;
34960;SDS011;30789;52.030;7.110;2022-12-07T08:12:00;7.30;;;3.17;;
34960;SDS011;30789;52.030;7.110;2022-12-07T08:14:27;3.50;;;2.20;;
34960;SDS011;30789;52.030;7.110;2022-12-07T08:16:55;6.63;;;4.25;;
34960;SDS011;30789;52.030;7.110;2022-12-07T08:19:22;9.75;;;4.22;;
34960;SDS011;30789;52.030;7.110;2022-12-07T08:21:48;9.48;;;3.28;;
34960;SDS011;30789;52.030;7.110;2022-12-07T08:24:15;7.38;;;2.50;;
34960;SDS011;30789;52.030;7.110;2022-12-07T08:26:42;6.35;;;2.00;;
34960;SDS011;30789;52.030;7.110;2022-12-07T08:29:09;3.65;;;1.90;;
34960;SDS011;30789;52.030;7.110;2022-12-07T08:31:35;9.50;;;2.50;;
34960;SDS011;30789;52.030;7.110;2022-12-07T08:34:03;5.07;;;2.42;;
34960;SDS011;30789;52.030;7.110;2022-12-07T08:36:29;3.40;;;2.58;;
34960;SDS011;30789;52.030;7.110;2022-12-07T08:38:56;5.28;;;1.92;;
34960;SDS011;30789;52.030;7.110;2022-12-07T08:41:22;7.70;;;2.05;;
34960;SDS011;30789;52.030;7.110;2022-12-07T08:43:50;2.53;;;1.83;;
34960;SDS011;30789;52.030;7.110;2022-12-07T08:46:18;3.10;;;1.80;;
34960;SDS011;30789;52.030;7.110;2022-12-07T08:48:49;2.42;;;1.70;;
34960;SDS011;30789;52.030;7.110;2022-12-07T08:51:18;6.50;;;2.38;;
34960;SDS011;30789;52.030;7.110;2022-12-07T08:53:46;4.43;;;1.90;;
34960;SDS011;30789;52.030;7.110;2022-12-07T08:56:14;7.20;;;2.20;;
34960;SDS011;30789;52.030;7.110;2022-12-07T08:58:41;4.82;;;2.33;;
34960;SDS011;30789;52.030;7.110;2022-12-07T09:01:08;5.68;;;2.70;;
34960;SDS011;30789;52.030;7.110;2022-12-07T09:03:35;5.53;;;2.28;;
34960;SDS011;30789;52.030;7.110;2022-12-07T09:06:01;3.25;;;2.42;;
34960;SDS011;30789;52.030;7.110;2022-12-07T09:08:30;5.35;;;2.65;;
34960;SDS011;30789;52.030;7.110;2022-12-07T09:10:59;4.63;;;2.10;;
34960;SDS011;30789;52.030;7.110;2022-12-07T09:13:25;4.50;;;2.33;;
34960;SDS011;30789;52.030;7.110;2022-12-07T09:15:52;8.10;;;2.58;;
34960;SDS011;30789;52.030;7.110;2022-12-07T09:18:18;3.28;;;2.05;;
34960;SDS011;30789;52.030;7.110;2022-12-07T09:20:45;3.28;;;2.13;;
34960;SDS011;30789;52.030;7.110;2022-12-07T09:23:11;8.40;;;1.85;;
34960;SDS011;30789;52.030;7.110;2022-12-07T09:25:39;5.05;;;1.40;;
34960;SDS011;30789;52.030;7.110;2022-12-07T09:28:06;6.18;;;2.25;;
34960;SDS011;30789;52.030;7.110;2022-12-07T09:30:32;5.03;;;2.25;;
34960;SDS011;30789;52.030;7.110;2022-12-07T09:32:59;8.95;;;2.78;;
34960;SDS011;30789;52.030;7.110;2022-12-07T09:35:25;4.47;;;2.20;;
34960;SDS011;30789;52.030;7.110;2022-12-07T09:37:52;6.63;;;2.13;;
34960;SDS011;30789;52.030;7.110;2022-12-07T09:40:19;2.88;;;2.00;;
34960;SDS011;30789;52.030;7.110;2022-12-07T09:42:51;4.40;;;2.08;;
34960;SDS011;30789;52.030;7.110;2022-12-07T09:45:21;4.32;;;2.33;;
34960;SDS011;30789;52.030;7.110;2022-12-07T09:47:49;4.28;;;1.95;;
34960;SDS011;30789;52.030;7.110;2022-12-07T09:50:16;3.83;;;1.38;;
34960;SDS011;30789;52.030;7.110;2022-12-07T09:52:46;5.80;;;1.70;;
34960;SDS011;30789;52.030;7.110;2022-12-07T09:55:16;4.03;;;2.00;;
34960;SDS011;30789;52.030;7.110;2022-12-07T09:57:45;9.00;;;2.53;;
34960;SDS011;30789;52.030;7.110;2022-12-07T10:00:14;5.93;;;1.50;;
34960;SDS011;30789;52.030;7.110;2022-12-07T10:02:43;3.67;;;1.80;;
34960;SDS011;30789;52.030;7.110;2022-12-07T10:05:12;4.20;;;1.80;;
34960;SDS011;30789;52.030;7.110;2022-12-07T10:07:41;3.47;;;1.58;;
34960;SDS011;30789;52.030;7.110;2022-12-07T10:10:12;7.22;;;1.83;;
34960;SDS011;30789;52.030;7.110;2022-12-07T10:12:53;8.82;;;1.75;;
34960;SDS011;30789;52.030;7.110;2022-12-07T10:15:23;11.95;;;2.15;;
34960;SDS011;30789;52.030;7.110;2022-12-07T10:18:20;6.53;;;2.25;;
34960;SDS011;30789;52.030;7.110;2022-12-07T10:21:04;9.60;;;1.95;;
34960;SDS011;30789;52.030;7.110;2022-12-07T10:23:36;4.35;;;1.90;;
34960;SDS011;30789;52.030;7.110;2022-12-07T10:26:18;2.95;;;1.75;;
34960;SDS011;30789;52.030;7.110;2022-12-07T10:28:47;2.97;;;1.88;;
34960;SDS011;30789;52.030;7.110;2022-12-07T10:31:17;3.80;;;1.75;;
34960;SDS011;30789;52.030;7.110;2022-12-07T10:33:49;5.13;;;1.90;;
34960;SDS011;30789;52.030;7.110;2022-12-07T10:38:46;10.70;;;2.17;;
34960;SDS011;30789;52.030;7.110;2022-12-07T10:41:13;6.22;;;2.38;;
34960;SDS011;30789;52.030;7.110;2022-12-07T10:43:46;11.52;;;2.00;;
34960;SDS011;30789;52.030;7.110;2022-12-07T10:52:22;6.20;;;1.45;;
34960;SDS011;30789;52.030;7.110;2022-12-07T10:55:07;7.00;;;1.70;;
34960;SDS011;30789;52.030;7.110;2022-12-07T10:57:44;5.88;;;1.27;;
34960;SDS011;30789;52.030;7.110;2022-12-07T11:00:22;2.63;;;1.23;;
34960;SDS011;30789;52.030;7.110;2022-12-07T11:02:57;2.22;;;1.17;;
34960;SDS011;30789;52.030;7.110;2022-12-07T11:05:49;4.80;;;1.75;;
34960;SDS011;30789;52.030;7.110;2022-12-07T11:08:22;5.65;;;1.60;;
34960;SDS011;30789;52.030;7.110;2022-12-07T11:11:06;4.43;;;1.50;;
34960;SDS011;30789;52.030;7.110;2022-12-07T11:13:40;4.38;;;1.10;;
34960;SDS011;30789;52.030;7.110;2022-12-07T11:16:21;2.92;;;1.17;;
34960;SDS011;30789;52.030;7.110;2022-12-07T11:19:01;3.30;;;1.13;;
34960;SDS011;30789;52.030;7.110;2022-12-07T11:21:42;6.97;;;1.40;;
34960;SDS011;30789;52.030;7.110;2022-12-07T11:24:14;6.40;;;1.75;;
34960;SDS011;30789;52.030;7.110;2022-12-07T11:26:47;5.00;;;1.00;;
34960;SDS011;30789;52.030;7.110;2022-12-07T11:29:29;2.08;;;0.73;;
34960;SDS011;30789;52.030;7.110;2022-12-07T11:32:14;2.83;;;1.00;;
34960;SDS011;30789;52.030;7.110;2022-12-07T11:34:51;8.32;;;1.20;;
34960;SDS011;30789;52.030;7.110;2022-12-07T11:37:25;4.30;;;0.90;;
34960;SDS011;30789;52.030;7.110;2022-12-07T11:39:56;2.07;;;1.00;;
34960;SDS011;30789;52.030;7.110;2022-12-07T11:42:29;5.03;;;1.33;;
34960;SDS011;30789;52.030;7.110;2022-12-07T11:44:59;4.40;;;1.25;;
34960;SDS011;30789;52.030;7.110;2022-12-07T11:47:30;6.20;;;1.25;;
34960;SDS011;30789;52.030;7.110;2022-12-07T11:50:09;4.68;;;1.20;;
34960;SDS011;30789;52.030;7.110;2022-12-07T11:52:48;4.25;;;1.50;;
34960;SDS011;30789;52.030;7.110;2022-12-07T11:55:21;13.30;;;8.05;;
34960;SDS011;30789;52.030;7.110;2022-12-07T11:57:56;19.77;;;13.32;;
34960;SDS011;30789;52.030;7.110;2022-12-07T12:00:29;18.70;;;11.13;;
34960;SDS011;30789;52.030;7.110;2022-12-07T12:02:56;8.63;;;5.43;;
34960;SDS011;30789;52.030;7.110;2022-12-07T12:05:28;6.38;;;3.17;;
34960;SDS011;30789;52.030;7.110;2022-12-07T12:07:57;6.97;;;2.05;;
34960;SDS011;30789;52.030;7.110;2022-12-07T12:10:33;3.63;;;1.33;;
34960;SDS011;30789;52.030;7.110;2022-12-07T12:13:24;2.08;;;1.30;;
34960;SDS011;30789;52.030;7.110;2022-12-07T12:16:06;4.50;;;1.58;;
34960;SDS011;30789;52.030;7.110;2022-12-07T12:18:57;5.40;;;1.60;;
34960;SDS011;30789;52.030;7.110;2022-12-07T12:24:06;4.70;;;1.50;;
34960;SDS011;30789;52.030;7.110;2022-12-07T12:26:38;5.85;;;1.83;;
34960;SDS011;30789;52.030;7.110;2022-12-07T12:29:06;2.10;;;1.75;;
34960;SDS011;30789;52.030;7.110;2022-12-07T12:31:48;4.40;;;1.60;;
34960;SDS011;30789;52.030;7.110;2022-12-07T12:34:33;2.17;;;1.30;;
34960;SDS011;30789;52.030;7.110;2022-12-07T12:37:17;5.15;;;1.52;;
34960;SDS011;30789;52.030;7.110;2022-12-07T12:58:31;7.15;;;1.73;;
34960;SDS011;30789;52.030;7.110;2022-12-07T13:04:21;3.72;;;1.75;;
34960;SDS011;30789;52.030;7.110;2022-12-07T13:06:53;5.03;;;1.63;;
34960;SDS011;30789;52.030;7.110;2022-12-07T13:09:21;9.15;;;1.48;;
34960;SDS011;30789;52.030;7.110;2022-12-07T13:11:50;7.18;;;1.30;;
34960;SDS011;30789;52.030;7.110;2022-12-07T13:14:41;2.33;;;1.15;;
34960;SDS011;30789;52.030;7.110;2022-12-07T13:17:09;5.88;;;1.27;;
34960;SDS011;30789;52.030;7.110;2022-12-07T13:22:35;14.18;;;4.40;;
34960;SDS011;30789;52.030;7.110;2022-12-07T13:25:18;3.60;;;2.45;;
34960;SDS011;30789;52.030;7.110;2022-12-07T13:27:55;4.50;;;1.40;;
34960;SDS011;30789;52.030;7.110;2022-12-07T13:30:25;3.65;;;1.92;;
34960;SDS011;30789;52.030;7.110;2022-12-07T13:32:52;4.55;;;2.42;;
34960;SDS011;30789;52.030;7.110;2022-12-07T13:35:27;10.00;;;7.45;;
34960;SDS011;30789;52.030;7.110;2022-12-07T13:37:54;6.78;;;6.05;;
34960;SDS011;30789;52.030;7.110;2022-12-07T13:40:21;8.65;;;4.97;;
34960;SDS011;30789;52.030;7.110;2022-12-07T13:42:56;6.60;;;3.63;;
34960;SDS011;30789;52.030;7.110;2022-12-07T13:45:24;8.13;;;4.65;;
34960;SDS011;30789;52.030;7.110;2022-12-07T13:48:14;7.95;;;4.63;;
34960;SDS011;30789;52.030;7.110;2022-12-07T13:50:48;7.90;;;4.05;;
34960;SDS011;30789;52.030;7.110;2022-12-07T13:53:18;5.53;;;2.72;;
34960;SDS011;30789;52.030;7.110;2022-12-07T13:55:46;3.03;;;1.58;;
34960;SDS011;30789;52.030;7.110;2022-12-07T13:58:13;6.43;;;1.23;;
34960;SDS011;30789;52.030;7.110;2022-12-07T14:00:41;7.05;;;1.45;;
34960;SDS011;30789;52.030;7.110;2022-12-07T14:03:23;5.85;;;1.52;;
34960;SDS011;30789;52.030;7.110;2022-12-07T14:06:03;7.45;;;1.42;;
34960;SDS011;30789;52.030;7.110;2022-12-07T14:08:32;7.88;;;1.35;;
34960;SDS011;30789;52.030;7.110;2022-12-07T14:10:58;6.35;;;1.48;;
34960;SDS011;30789;52.030;7.110;2022-12-07T14:13:27;11.40;;;1.83;;
34960;SDS011;30789;52.030;7.110;2022-12-07T14:15:58;4.25;;;0.98;;
34960;SDS011;30789;52.030;7.110;2022-12-07T14:18:26;4.90;;;1.40;;
34960;SDS011;30789;52.030;7.110;2022-12-07T14:21:02;10.38;;;4.57;;
34960;SDS011;30789;52.030;7.110;2022-12-07T14:23:29;7.95;;;1.75;;
34960;SDS011;30789;52.030;7.110;2022-12-07T14:26:03;7.22;;;1.08;;
34960;SDS011;30789;52.030;7.110;2022-12-07T14:28:33;4.97;;;2.45;;
34960;SDS011;30789;52.030;7.110;2022-12-07T14:31:03;3.80;;;1.38;;
34960;SDS011;30789;52.030;7.110;2022-12-07T14:33:36;5.10;;;2.17;;
34960;SDS011;30789;52.030;7.110;2022-12-07T14:36:03;4.90;;;1.67;;
34960;SDS011;30789;52.030;7.110;2022-12-07T14:38:30;6.25;;;1.23;;
34960;SDS011;30789;52.030;7.110;2022-12-07T14:40:56;7.82;;;2.00;;
34960;SDS011;30789;52.030;7.110;2022-12-07T14:43:44;6.93;;;1.48;;
34960;SDS011;30789;52.030;7.110;2022-12-07T14:46:11;5.45;;;1.20;;
34960;SDS011;30789;52.030;7.110;2022-12-07T14:48:38;4.88;;;1.70;;
34960;SDS011;30789;52.030;7.110;2022-12-07T14:51:04;1.92;;;1.13;;
34960;SDS011;30789;52.030;7.110;2022-12-07T14:53:35;10.63;;;1.55;;
34960;SDS011;30789;52.030;7.110;2022-12-07T14:56:05;6.35;;;1.83;;
34960;SDS011;30789;52.030;7.110;2022-12-07T14:58:32;3.63;;;1.63;;
34960;SDS011;30789;52.030;7.110;2022-12-07T15:00:59;6.40;;;3.17;;
34960;SDS011;30789;52.030;7.110;2022-12-07T15:03:27;15.35;;;8.18;;
34960;SDS011;30789;52.030;7.110;2022-12-07T15:05:53;10.35;;;5.15;;
34960;SDS011;30789;52.030;7.110;2022-12-07T15:08:20;8.63;;;5.55;;
34960;SDS011;30789;52.030;7.110;2022-12-07T15:10:46;4.07;;;3.08;;
34960;SDS011;30789;52.030;7.110;2022-12-07T15:13:13;8.88;;;2.45;;
34960;SDS011;30789;52.030;7.110;2022-12-07T15:15:57;6.90;;;2.58;;
34960;SDS011;30789;52.030;7.110;2022-12-07T15:18:23;6.38;;;2.80;;
34960;SDS011;30789;52.030;7.110;2022-12-07T15:20:51;9.38;;;4.28;;
34960;SDS011;30789;52.030;7.110;2022-12-07T15:23:18;7.07;;;2.92;;
34960;SDS011;30789;52.030;7.110;2022-12-07T15:25:45;3.83;;;2.42;;
34960;SDS011;30789;52.030;7.110;2022-12-07T15:28:13;5.90;;;3.08;;
34960;SDS011;30789;52.030;7.110;2022-12-07T15:30:41;4.55;;;2.88;;
34960;SDS011;30789;52.030;7.110;2022-12-07T15:33:09;6.57;;;2.60;;
34960;SDS011;30789;52.030;7.110;2022-12-07T15:35:38;7.75;;;2.45;;
34960;SDS011;30789;52.030;7.110;2022-12-07T15:38:06;8.40;;;2.60;;
34960;SDS011;30789;52.030;7.110;2022-12-07T15:40:33;9.52;;;3.05;;